Time;durP1;ratioP1;P1;durP2;ratioP2;P2;SDS_P1;SDS_P2;PMS_P1;PMS_P2;Temp;Humidity;BMP_temperature;BMP_pressure;BME280_temperature;BME280_humidity;BME280_pressure;Samples;Min_cycle;Max_cycle;Signal;HPM_P1;HPM_P2
2023/02/21 02:14:17;;;;;;;3.73;2.30;;;8.10;33.00;;;;;;10475703;28;20239;-73
2023/02/21 02:19:56;;;;;;;2.43;2.23;;;8.00;33.60;;;;;;10489893;28;20591;-73
2023/02/21 02:25:18;;;;;;;3.17;2.37;;;8.00;33.70;;;;;;10478765;28;20239;-73
2023/02/21 02:30:58;;;;;;;2.77;2.40;;;8.00;33.80;;;;;;10472771;28;20236;-73
2023/02/21 02:36:08;;;;;;;2.77;2.30;;;8.00;33.70;;;;;;10474053;28;20278;-73
2023/02/21 02:41:16;;;;;;;2.90;2.53;;;8.00;33.40;;;;;;10478250;28;20232;-73
2023/02/21 02:46:23;;;;;;;2.53;2.33;;;8.00;33.20;;;;;;10473400;28;20252;-73
2023/02/21 02:51:28;;;;;;;3.00;2.43;;;8.00;33.20;;;;;;10479364;28;20228;-73
2023/02/21 02:56:34;;;;;;;3.40;2.50;;;7.90;33.10;;;;;;10483839;28;20227;-73
2023/02/21 03:01:55;;;;;;;2.40;2.20;;;7.80;33.00;;;;;;10468627;28;20311;-73
2023/02/21 03:07:07;;;;;;;2.83;2.40;;;7.70;33.90;;;;;;10472415;28;20243;-73
2023/02/21 03:12:18;;;;;;;2.47;2.00;;;7.70;33.90;;;;;;10486069;28;20235;-73
2023/02/21 03:17:24;;;;;;;2.47;2.20;;;7.80;33.70;;;;;;10479361;28;20237;-74
2023/02/21 03:22:31;;;;;;;2.47;2.27;;;7.80;33.60;;;;;;10469848;28;20239;-74
2023/02/21 03:27:35;;;;;;;3.70;2.60;;;7.80;33.60;;;;;;10475602;28;20235;-75
2023/02/21 03:32:42;;;;;;;2.30;2.10;;;7.70;33.20;;;;;;10478784;28;20235;-74
2023/02/21 03:37:51;;;;;;;3.23;2.50;;;7.60;33.30;;;;;;10478302;28;20243;-74
2023/02/21 03:42:56;;;;;;;2.63;2.20;;;7.60;33.60;;;;;;10476836;28;20804;-74
2023/02/21 03:47:59;;;;;;;2.30;2.10;;;7.50;33.40;;;;;;10467091;28;20239;-75
2023/02/21 03:53:04;;;;;;;2.37;2.17;;;7.40;33.50;;;;;;10480800;28;20228;-74
2023/02/21 03:58:07;;;;;;;2.80;2.33;;;7.30;33.70;;;;;;10479230;28;20244;-74
2023/02/21 04:03:10;;;;;;;2.43;2.00;;;7.30;33.70;;;;;;10477023;28;20240;-74
2023/02/21 04:08:15;;;;;;;3.50;2.40;;;7.30;33.70;;;;;;10472106;28;20607;-74
2023/02/21 04:13:20;;;;;;;3.63;2.10;;;7.20;33.70;;;;;;10471998;28;20228;-74
2023/02/21 04:18:23;;;;;;;2.47;2.27;;;7.20;33.40;;;;;;10482235;28;20699;-75
2023/02/21 04:23:27;;;;;;;3.07;2.60;;;7.20;33.50;;;;;;10484495;28;20233;-74
2023/02/21 04:28:30;;;;;;;2.90;2.63;;;7.10;33.90;;;;;;10481490;28;20232;-75
2023/02/21 04:33:33;;;;;;;2.80;2.60;;;7.00;33.80;;;;;;10476995;28;20229;-75
2023/02/21 04:38:38;;;;;;;3.53;2.73;;;7.00;33.80;;;;;;10488815;28;20236;-74
2023/02/21 04:43:42;;;;;;;3.10;2.47;;;7.00;34.10;;;;;;10477302;28;20771;-75
2023/02/21 04:48:48;;;;;;;5.20;2.90;;;7.00;34.10;;;;;;10483010;28;20643;-75
2023/02/21 04:53:54;;;;;;;3.47;2.60;;;7.00;34.30;;;;;;10471361;28;20231;-75
2023/02/21 04:58:57;;;;;;;4.53;3.03;;;7.00;34.50;;;;;;10473597;28;20229;-75
2023/02/21 05:04:01;;;;;;;3.13;2.83;;;7.00;34.20;;;;;;10481476;28;20235;-75
2023/02/21 05:09:06;;;;;;;2.57;2.37;;;7.00;34.20;;;;;;10478387;28;20235;-75
2023/02/21 05:14:09;;;;;;;3.90;3.40;;;7.00;34.40;;;;;;10485992;28;20282;-75
2023/02/21 05:19:12;;;;;;;3.67;3.17;;;7.00;34.20;;;;;;10477286;28;20244;-75
2023/02/21 05:24:17;;;;;;;2.93;2.63;;;7.00;34.30;;;;;;10487096;28;20232;-75
2023/02/21 05:29:20;;;;;;;2.77;2.57;;;7.00;34.40;;;;;;10492456;28;20238;-75
2023/02/21 05:34:23;;;;;;;2.80;2.50;;;7.00;34.20;;;;;;10484740;28;20229;-75
2023/02/21 05:39:28;;;;;;;2.47;2.30;;;6.90;34.10;;;;;;10485461;28;20232;-75
2023/02/21 05:44:31;;;;;;;2.57;2.00;;;6.90;34.40;;;;;;10476194;28;20582;-75
2023/02/21 05:49:37;;;;;;;3.23;2.93;;;6.90;34.20;;;;;;10484907;28;20241;-75
2023/02/21 05:54:42;;;;;;;4.10;2.50;;;6.80;34.40;;;;;;10478481;28;20750;-76
2023/02/21 05:59:46;;;;;;;3.90;3.07;;;6.80;34.30;;;;;;10483578;28;20239;-75
2023/02/21 06:04:50;;;;;;;3.80;3.50;;;6.70;34.10;;;;;;10475629;28;20228;-76
2023/02/21 06:09:54;;;;;;;3.77;3.40;;;6.70;34.20;;;;;;10478849;28;20562;-76
2023/02/21 06:14:57;;;;;;;4.83;4.40;;;6.70;34.40;;;;;;10482124;28;20233;-76
2023/02/21 06:20:06;;;;;;;4.50;4.00;;;6.60;34.30;;;;;;10485232;28;20219;-77
2023/02/21 06:25:11;;;;;;;6.00;5.40;;;6.60;34.70;;;;;;10465878;28;20233;-77
2023/02/21 06:30:15;;;;;;;5.43;4.60;;;6.50;34.60;;;;;;10464999;28;20276;-75
2023/02/21 06:35:18;;;;;;;6.27;4.00;;;6.50;34.40;;;;;;10474479;28;20224;-75
2023/02/21 06:40:22;;;;;;;4.70;3.70;;;6.50;34.60;;;;;;10475249;28;20232;-75
2023/02/21 06:45:26;;;;;;;4.50;3.10;;;6.40;34.90;;;;;;10475581;28;20240;-75
2023/02/21 06:50:30;;;;;;;3.90;3.40;;;6.40;34.80;;;;;;10477091;28;20238;-75
2023/02/21 06:55:34;;;;;;;4.20;3.63;;;6.40;35.00;;;;;;10476658;28;20243;-75
2023/02/21 07:00:37;;;;;;;4.30;3.90;;;6.50;35.40;;;;;;10474126;28;20232;-75
2023/02/21 07:05:40;;;;;;;4.60;3.83;;;6.50;35.30;;;;;;10471173;28;20232;-75
2023/02/21 07:10:45;;;;;;;4.63;3.70;;;6.50;35.30;;;;;;10473192;28;20229;-75
2023/02/21 07:15:48;;;;;;;5.73;5.17;;;6.50;35.80;;;;;;10471864;28;20232;-75
2023/02/21 07:20:51;;;;;;;4.43;3.30;;;6.50;35.70;;;;;;10474600;28;20613;-75
2023/02/21 07:25:56;;;;;;;4.20;3.10;;;6.60;35.80;;;;;;10457436;28;20233;-74
2023/02/21 07:30:59;;;;;;;3.33;2.90;;;6.70;36.10;;;;;;10474633;28;20232;-74
2023/02/21 07:36:02;;;;;;;3.67;3.27;;;6.70;36.00;;;;;;10474101;28;20784;-74
2023/02/21 07:41:07;;;;;;;4.67;3.27;;;6.80;36.20;;;;;;10472751;28;20246;-74
2023/02/21 07:46:11;;;;;;;3.73;3.20;;;7.00;36.60;;;;;;10479954;28;20236;-74
2023/02/21 07:51:14;;;;;;;4.17;3.77;;;7.10;36.70;;;;;;10478324;28;20235;-73
2023/02/21 07:56:19;;;;;;;5.00;3.57;;;7.30;36.90;;;;;;10486145;28;20224;-74
2023/02/21 08:01:24;;;;;;;5.73;3.77;;;7.50;37.40;;;;;;10490083;28;20231;-73
2023/02/21 08:06:27;;;;;;;3.60;3.23;;;7.70;37.50;;;;;;10480862;28;20231;-72
2023/02/21 08:11:33;;;;;;;4.13;3.40;;;7.90;37.60;;;;;;10478325;28;20225;-72
2023/02/21 08:16:36;;;;;;;3.50;3.20;;;8.20;38.80;;;;;;10473691;28;20746;-72
2023/02/21 08:21:43;;;;;;;4.50;3.50;;;8.50;37.90;;;;;;10472865;28;20236;-73
2023/02/21 08:26:49;;;;;;;3.73;3.30;;;8.80;38.00;;;;;;10477905;28;20229;-73
2023/02/21 08:31:52;;;;;;;4.73;3.40;;;9.10;38.30;;;;;;10484832;28;20572;-73
2023/02/21 08:36:56;;;;;;;4.43;4.03;;;9.40;37.90;;;;;;10484526;28;20240;-73
2023/02/21 08:42:00;;;;;;;4.50;3.60;;;9.80;37.90;;;;;;10477961;28;20220;-73
2023/02/21 08:47:03;;;;;;;4.50;4.10;;;10.10;36.90;;;;;;10475213;28;20239;-72
2023/02/21 08:52:07;;;;;;;5.67;4.37;;;10.40;36.70;;;;;;10474194;28;20221;-72
2023/02/21 08:57:12;;;;;;;5.03;3.90;;;10.70;36.60;;;;;;10482627;28;20247;-72
2023/02/21 09:02:16;;;;;;;5.30;3.70;;;11.00;36.70;;;;;;10477586;28;20231;-73
2023/02/21 09:07:21;;;;;;;3.93;2.47;;;11.30;36.40;;;;;;10474523;28;20237;-73
2023/02/21 09:12:26;;;;;;;2.97;2.40;;;11.60;35.80;;;;;;10478593;28;20227;-76
2023/02/21 09:17:32;;;;;;;3.13;2.20;;;11.90;35.60;;;;;;10477371;28;20243;-73
2023/02/21 09:22:35;;;;;;;4.63;2.53;;;12.20;35.20;;;;;;10484842;28;20240;-74
2023/02/21 09:27:42;;;;;;;3.30;2.50;;;12.40;35.30;;;;;;10479058;28;20240;-74
2023/02/21 09:32:45;;;;;;;2.57;2.27;;;12.70;35.00;;;;;;10474218;28;20504;-74
2023/02/21 09:37:48;;;;;;;3.20;2.70;;;13.00;35.10;;;;;;10485182;28;20770;-74
2023/02/21 09:42:55;;;;;;;2.70;2.50;;;13.30;34.40;;;;;;10478976;28;20459;-74
2023/02/21 09:48:01;;;;;;;5.17;2.87;;;13.50;34.00;;;;;;10484545;28;20224;-73
2023/02/21 09:53:05;;;;;;;4.23;3.10;;;13.70;33.50;;;;;;10479714;28;20223;-73
2023/02/21 09:58:13;;;;;;;3.73;3.30;;;13.80;33.50;;;;;;10471893;28;20236;-69
2023/02/21 10:03:45;;;;;;;5.10;3.20;;;13.90;33.10;;;;;;10480503;28;20582;-73
2023/02/21 10:08:56;;;;;;;3.43;2.70;;;14.00;32.70;;;;;;10471080;28;20234;-73
2023/02/21 10:14:10;;;;;;;3.30;3.00;;;14.10;32.90;;;;;;10474202;28;20229;-73
2023/02/21 10:19:19;;;;;;;3.37;2.87;;;14.30;32.70;;;;;;10476744;28;20241;-73
2023/02/21 10:24:24;;;;;;;3.53;2.93;;;14.50;32.30;;;;;;10482144;28;20228;-73
2023/02/21 10:29:38;;;;;;;4.20;2.97;;;14.60;33.10;;;;;;10479762;28;20235;-73
2023/02/21 10:34:43;;;;;;;3.97;2.90;;;14.70;31.80;;;;;;10473467;28;20232;-73
2023/02/21 10:39:52;;;;;;;4.20;2.63;;;14.80;32.10;;;;;;10473509;28;20704;-73
2023/02/21 10:44:58;;;;;;;3.57;2.80;;;15.00;32.30;;;;;;10470443;28;20224;-73
2023/02/21 10:50:04;;;;;;;3.37;3.00;;;15.10;32.20;;;;;;10476304;28;20255;-73
2023/02/21 10:55:16;;;;;;;3.63;2.87;;;15.20;31.40;;;;;;10472670;28;20233;-73
2023/02/21 11:00:37;;;;;;;2.63;2.43;;;15.30;31.20;;;;;;10474488;28;20247;-73
2023/02/21 11:05:40;;;;;;;2.97;2.70;;;15.40;31.20;;;;;;10463013;28;20468;-74
2023/02/21 11:10:44;;;;;;;3.70;3.27;;;15.50;31.80;;;;;;10466059;28;20254;-73
2023/02/21 11:16:06;;;;;;;3.20;2.43;;;15.60;32.00;;;;;;10475268;28;20247;-74
2023/02/21 11:21:15;;;;;;;3.00;2.80;;;15.70;31.40;;;;;;10468625;28;20236;-73
2023/02/21 11:26:19;;;;;;;4.10;3.30;;;15.70;30.60;;;;;;10474942;28;20228;-73
2023/02/21 11:31:28;;;;;;;3.40;2.70;;;15.80;31.20;;;;;;10479959;28;20727;-73
2023/02/21 11:36:33;;;;;;;2.97;2.67;;;15.80;29.90;;;;;;10492795;28;20310;-73
2023/02/21 11:41:44;;;;;;;2.60;2.20;;;15.80;30.80;;;;;;10480036;28;20815;-73
2023/02/21 11:46:53;;;;;;;2.80;2.60;;;15.80;31.00;;;;;;10483224;28;20882;-74
2023/02/21 11:52:00;;;;;;;4.57;2.90;;;16.00;30.80;;;;;;10476602;28;20225;-70
2023/02/21 11:57:09;;;;;;;3.97;2.90;;;16.10;30.70;;;;;;10474763;28;20326;-73
2023/02/21 12:02:50;;;;;;;3.10;2.80;;;16.20;30.90;;;;;;10478831;28;20737;-73
2023/02/21 12:08:37;;;;;;;3.20;2.40;;;16.20;29.00;;;;;;10447533;28;20264;-70
2023/02/21 12:13:50;;;;;;;2.63;2.43;;;16.20;30.00;;;;;;10479377;28;20228;-74
2023/02/21 12:19:08;;;;;;;2.60;2.30;;;16.30;30.30;;;;;;10487066;28;20228;-73
2023/02/21 12:24:26;;;;;;;2.43;2.23;;;16.50;30.00;;;;;;10469006;28;20224;-69
2023/02/21 12:29:42;;;;;;;2.50;2.30;;;16.50;30.10;;;;;;10482659;28;20620;-70
2023/02/21 12:35:20;;;;;;;2.30;2.10;;;16.60;30.60;;;;;;10479047;28;20597;-69
2023/02/21 12:40:34;;;;;;;2.50;2.30;;;16.70;29.90;;;;;;10477750;28;20238;-69
2023/02/21 12:45:49;;;;;;;2.70;2.50;;;16.70;29.80;;;;;;10480332;28;20232;-69
2023/02/21 12:50:58;;;;;;;2.10;1.97;;;16.70;29.80;;;;;;10488255;28;20222;-67
2023/02/21 12:56:09;;;;;;;2.50;2.30;;;16.80;30.50;;;;;;10470371;28;20235;-68
2023/02/21 13:01:16;;;;;;;2.00;1.90;;;16.80;30.60;;;;;;10470470;28;20713;-71
2023/02/21 13:06:28;;;;;;;2.20;1.90;;;16.80;30.20;;;;;;10472025;28;20267;-68
2023/02/21 13:11:39;;;;;;;2.93;2.27;;;16.90;30.20;;;;;;10482780;28;20228;-68
2023/02/21 13:16:45;;;;;;;2.00;1.90;;;16.90;29.70;;;;;;10472608;28;20252;-68
2023/02/21 13:22:02;;;;;;;2.50;2.30;;;17.00;30.40;;;;;;10473945;28;20220;-71
2023/02/21 13:27:47;;;;;;;2.40;2.17;;;17.00;29.80;;;;;;10473889;28;20254;-70
2023/02/21 13:32:54;;;;;;;2.37;2.17;;;17.10;29.80;;;;;;10356603;28;20219;-72
2023/02/21 13:37:59;;;;;;;3.20;2.27;;;17.10;29.90;;;;;;10477833;28;20240;-71
2023/02/21 13:43:10;;;;;;;2.30;2.10;;;17.20;30.00;;;;;;10473888;28;20293;-69
2023/02/21 13:48:30;;;;;;;2.97;2.03;;;17.20;29.50;;;;;;10463707;28;20748;-70
2023/02/21 13:54:08;;;;;;;2.57;2.10;;;17.30;29.50;;;;;;10472906;28;20252;-67
2023/02/21 13:59:33;;;;;;;2.43;1.90;;;17.40;29.10;;;;;;10484787;28;20661;-68
2023/02/21 14:05:02;;;;;;;1.83;1.73;;;17.40;29.40;;;;;;10477454;28;20278;-66
2023/02/21 14:10:19;;;;;;;2.40;1.90;;;17.40;28.80;;;;;;10464374;28;20255;-71
2023/02/21 14:15:41;;;;;;;2.00;1.80;;;17.50;29.40;;;;;;10419864;27;20585;-71
2023/02/21 14:20:48;;;;;;;1.80;1.70;;;17.50;29.40;;;;;;10385134;28;20717;-72
2023/02/21 14:25:58;;;;;;;2.33;1.90;;;17.60;29.30;;;;;;10391752;28;20264;-71
2023/02/21 14:31:04;;;;;;;1.70;1.60;;;17.60;29.10;;;;;;10383765;28;20224;-72
2023/02/21 14:36:13;;;;;;;1.80;1.57;;;17.60;29.60;;;;;;10388545;28;20222;-71
2023/02/21 14:41:36;;;;;;;1.90;1.80;;;17.60;29.50;;;;;;10393327;28;20225;-68
2023/02/21 14:47:12;;;;;;;1.67;1.43;;;17.70;29.10;;;;;;10391117;28;20233;-76
2023/02/21 14:53:05;;;;;;;1.60;1.50;;;17.80;29.30;;;;;;10390702;28;20226;-71
2023/02/21 14:58:53;;;;;;;3.43;1.47;;;17.80;29.10;;;;;;10391970;28;20228;-68
2023/02/21 15:04:05;;;;;;;2.70;1.47;;;17.80;29.60;;;;;;10388009;28;20222;-71
2023/02/21 15:09:12;;;;;;;1.80;1.50;;;17.90;29.50;;;;;;10389153;28;20772;-70
2023/02/21 15:14:24;;;;;;;1.67;1.53;;;18.00;29.30;;;;;;10386284;28;20233;-70
2023/02/21 15:19:31;;;;;;;1.50;1.40;;;18.00;29.40;;;;;;10387375;28;20233;-70
2023/02/21 15:24:34;;;;;;;1.97;1.50;;;18.00;29.10;;;;;;10373480;28;20226;-70
2023/02/21 15:29:38;;;;;;;2.77;1.50;;;18.00;29.40;;;;;;10357397;28;20257;-70
2023/02/21 15:34:45;;;;;;;3.10;2.73;;;18.00;29.20;;;;;;10359854;28;20538;-70
2023/02/21 15:39:52;;;;;;;1.80;1.70;;;18.00;29.00;;;;;;10359092;28;20230;-70
2023/02/21 15:45:00;;;;;;;2.03;1.83;;;18.00;29.00;;;;;;10359950;28;20277;-70
2023/02/21 15:50:12;;;;;;;2.33;1.73;;;18.00;29.10;;;;;;10364281;28;20237;-70
2023/02/21 15:55:27;;;;;;;2.50;2.30;;;17.90;28.70;;;;;;10362118;28;20670;-70
2023/02/21 16:00:32;;;;;;;2.20;2.00;;;17.90;29.10;;;;;;10361094;28;20270;-70
2023/02/21 16:05:37;;;;;;;2.60;1.87;;;17.90;29.10;;;;;;10362946;28;20230;-70
2023/02/21 16:10:40;;;;;;;1.20;1.20;;;17.80;29.10;;;;;;10361570;28;20606;-70
2023/02/21 16:15:43;;;;;;;1.73;1.30;;;17.80;29.20;;;;;;10360544;28;20230;-70
2023/02/21 16:20:59;;;;;;;3.13;1.30;;;17.80;29.30;;;;;;10361825;28;20250;-70
2023/02/21 16:26:19;;;;;;;1.20;1.10;;;17.70;29.00;;;;;;10360010;28;20233;-70
2023/02/21 16:31:27;;;;;;;2.93;1.33;;;17.60;29.30;;;;;;10360146;28;20257;-70
2023/02/21 16:36:33;;;;;;;1.77;1.37;;;17.50;29.30;;;;;;10359947;28;20563;-70
2023/02/21 16:41:37;;;;;;;2.37;1.40;;;17.40;29.40;;;;;;10362558;28;20593;-70
2023/02/21 16:46:40;;;;;;;4.33;1.30;;;17.30;29.50;;;;;;10361051;28;20238;-70
2023/02/21 16:51:45;;;;;;;2.10;1.40;;;17.30;29.60;;;;;;10363114;28;20233;-70
2023/02/21 16:56:51;;;;;;;1.83;1.50;;;17.20;29.50;;;;;;10361135;28;20226;-70
2023/02/21 17:01:54;;;;;;;2.17;1.70;;;17.00;29.50;;;;;;10361717;28;20229;-70
2023/02/21 17:07:02;;;;;;;6.07;4.10;;;16.80;29.50;;;;;;10358346;28;20245;-70
2023/02/21 17:12:05;;;;;;;8.97;6.27;;;16.70;29.50;;;;;;10359838;28;20632;-70
2023/02/21 17:17:09;;;;;;;9.43;7.60;;;16.50;29.50;;;;;;10360821;28;20725;-74
2023/02/21 17:22:13;;;;;;;11.30;9.40;;;16.40;29.60;;;;;;10357804;28;20226;-74
2023/02/21 17:27:16;;;;;;;10.73;9.13;;;16.30;29.70;;;;;;10359259;28;20226;-74
2023/02/21 17:32:19;;;;;;;10.43;8.80;;;16.20;29.70;;;;;;10356919;28;20227;-74
2023/02/21 17:37:24;;;;;;;7.83;6.43;;;16.10;29.70;;;;;;10358349;28;20238;-75
2023/02/21 17:42:27;;;;;;;6.40;5.73;;;16.00;29.70;;;;;;10358590;28;20699;-74
2023/02/21 17:47:30;;;;;;;7.03;5.60;;;15.90;29.70;;;;;;10358143;28;20237;-74
2023/02/21 17:52:34;;;;;;;6.90;6.20;;;15.70;29.60;;;;;;10358545;28;20233;-74
2023/02/21 17:57:39;;;;;;;7.07;5.93;;;15.60;29.70;;;;;;10358060;28;20714;-74
2023/02/21 18:02:42;;;;;;;6.63;6.03;;;15.50;29.80;;;;;;10358818;28;20226;-74
2023/02/21 18:07:48;;;;;;;5.40;4.83;;;15.40;29.90;;;;;;10357099;28;20284;-74
2023/02/21 18:12:52;;;;;;;5.10;4.70;;;15.30;30.00;;;;;;10358583;28;20829;-74
2023/02/21 18:17:55;;;;;;;3.97;3.67;;;15.10;29.80;;;;;;10358697;28;20733;-75
2023/02/21 18:23:02;;;;;;;4.97;4.43;;;15.00;29.80;;;;;;10359412;28;20238;-74
2023/02/21 18:28:05;;;;;;;5.73;5.00;;;14.90;29.90;;;;;;10358400;28;20767;-74
2023/02/21 18:33:08;;;;;;;4.90;4.50;;;14.80;29.90;;;;;;10356473;28;20784;-74
2023/02/21 18:38:14;;;;;;;7.00;6.30;;;14.70;30.00;;;;;;10359821;28;20594;-74
2023/02/21 18:43:20;;;;;;;7.43;6.13;;;14.60;30.00;;;;;;10358751;28;20239;-74
2023/02/21 18:48:24;;;;;;;8.93;7.47;;;14.50;30.00;;;;;;10357870;28;20584;-74
2023/02/21 18:53:29;;;;;;;9.00;7.83;;;14.40;30.00;;;;;;10358816;28;20233;-69
2023/02/21 18:58:32;;;;;;;14.00;10.97;;;14.20;30.10;;;;;;10360306;28;20230;-69
2023/02/21 19:03:35;;;;;;;11.97;10.57;;;14.10;30.00;;;;;;10366003;28;20229;-69
2023/02/21 19:08:40;;;;;;;15.67;11.83;;;14.00;30.20;;;;;;10364275;28;20738;-69
2023/02/21 19:13:46;;;;;;;12.53;11.23;;;13.90;30.20;;;;;;10365947;28;20226;-69
2023/02/21 19:18:50;;;;;;;13.17;11.07;;;13.70;30.00;;;;;;10365710;28;20605;-69
2023/02/21 19:23:54;;;;;;;12.23;10.03;;;13.50;30.20;;;;;;10365310;28;20580;-69
2023/02/21 19:28:58;;;;;;;15.43;12.80;;;13.40;30.70;;;;;;10363837;28;20230;-69
2023/02/21 19:34:01;;;;;;;11.80;9.73;;;13.30;30.60;;;;;;10363255;28;20240;-69
2023/02/21 19:39:05;;;;;;;13.93;11.30;;;13.20;30.50;;;;;;10364946;28;20703;-69
2023/02/21 19:44:09;;;;;;;14.70;12.53;;;13.00;30.40;;;;;;10364641;28;20233;-69
2023/02/21 19:49:16;;;;;;;14.70;13.17;;;12.90;30.30;;;;;;10364962;28;20245;-69
2023/02/21 19:54:25;;;;;;;14.87;13.27;;;12.70;30.10;;;;;;10364120;28;20703;-69
2023/02/21 19:59:28;;;;;;;10.50;9.47;;;12.60;31.00;;;;;;10365314;28;20230;-69
2023/02/21 20:04:32;;;;;;;12.03;8.93;;;12.40;30.70;;;;;;10363317;28;20234;-69
2023/02/21 20:09:37;;;;;;;9.10;7.17;;;12.40;30.80;;;;;;10361452;28;20711;-69
2023/02/21 20:14:44;;;;;;;8.33;7.50;;;12.40;31.10;;;;;;10362231;28;20234;-69
2023/02/21 20:19:47;;;;;;;8.30;7.23;;;12.30;30.80;;;;;;10362010;28;20313;-69
2023/02/21 20:24:52;;;;;;;9.13;6.93;;;12.20;30.60;;;;;;10363059;28;20238;-69
2023/02/21 20:29:55;;;;;;;7.60;6.23;;;12.10;30.90;;;;;;10363201;28;20227;-69
2023/02/21 20:34:58;;;;;;;8.27;7.43;;;12.00;30.70;;;;;;10362625;28;20611;-69
2023/02/21 20:40:05;;;;;;;11.43;8.30;;;11.90;30.90;;;;;;10363686;28;20682;-69
2023/02/21 20:45:10;;;;;;;7.80;6.93;;;11.90;31.40;;;;;;10361742;28;20234;-69
2023/02/21 20:50:13;;;;;;;9.37;7.47;;;11.80;31.10;;;;;;10363425;28;20241;-69
2023/02/21 20:55:21;;;;;;;8.47;7.30;;;11.80;31.10;;;;;;10361247;28;20234;-69
2023/02/21 21:00:29;;;;;;;8.93;8.03;;;11.70;31.30;;;;;;10364068;28;20230;-69
2023/02/21 21:05:32;;;;;;;9.50;7.80;;;11.70;31.30;;;;;;10359196;28;20222;-69
2023/02/21 21:10:37;;;;;;;7.40;6.63;;;11.60;31.20;;;;;;10361776;28;20234;-69
2023/02/21 21:15:41;;;;;;;9.43;8.07;;;11.60;31.30;;;;;;10361854;28;20237;-69
2023/02/21 21:20:44;;;;;;;12.27;9.07;;;11.60;31.20;;;;;;10361261;28;20230;-69
2023/02/21 21:25:48;;;;;;;12.17;10.23;;;11.50;31.10;;;;;;10360430;28;20235;-69
2023/02/21 21:30:51;;;;;;;12.23;9.27;;;11.40;31.20;;;;;;10358993;28;20780;-69
2023/02/21 21:35:57;;;;;;;13.63;11.37;;;11.30;31.20;;;;;;10359828;28;20230;-69
2023/02/21 21:41:11;;;;;;;11.13;9.27;;;11.30;31.50;;;;;;10361752;28;20412;-69
2023/02/21 21:46:15;;;;;;;10.53;8.77;;;11.20;31.40;;;;;;10359362;28;20225;-69
2023/02/21 21:51:18;;;;;;;12.07;8.83;;;11.20;31.20;;;;;;10361231;28;20772;-69
2023/02/21 21:56:26;;;;;;;9.43;6.50;;;11.10;31.20;;;;;;10360345;28;20230;-69
2023/02/21 22:01:29;;;;;;;6.60;5.37;;;11.00;31.40;;;;;;10360346;28;20568;-69
2023/02/21 22:06:32;;;;;;;6.83;5.00;;;10.90;31.10;;;;;;10357142;28;20254;-69
2023/02/21 22:11:37;;;;;;;5.17;4.67;;;10.70;31.30;;;;;;10359339;28;20233;-69
2023/02/21 22:16:42;;;;;;;6.03;5.43;;;10.60;31.70;;;;;;10355673;28;20237;-69
2023/02/21 22:21:46;;;;;;;7.50;6.80;;;10.60;31.80;;;;;;10358292;28;20613;-69
2023/02/21 22:26:51;;;;;;;7.00;6.30;;;10.60;31.70;;;;;;10359910;28;20232;-69
2023/02/21 22:31:55;;;;;;;7.20;5.87;;;10.50;31.80;;;;;;10356840;28;20317;-69
2023/02/21 22:36:58;;;;;;;7.17;6.20;;;10.40;31.60;;;;;;10365233;28;20313;-69
2023/02/21 22:42:07;;;;;;;5.53;5.03;;;10.30;31.60;;;;;;10367353;28;20218;-69
2023/02/21 22:47:11;;;;;;;6.27;5.57;;;10.20;31.80;;;;;;10367246;28;20826;-69
2023/02/21 22:52:14;;;;;;;9.13;7.80;;;10.10;31.70;;;;;;10367078;28;20714;-69
2023/02/21 22:57:19;;;;;;;6.00;5.10;;;10.10;31.80;;;;;;10366522;28;20243;-69
2023/02/21 23:02:22;;;;;;;6.70;4.57;;;10.00;32.00;;;;;;10367287;28;20237;-69
2023/02/21 23:07:25;;;;;;;4.57;4.17;;;9.90;32.60;;;;;;10364427;28;20230;-69
2023/02/21 23:12:30;;;;;;;4.57;4.17;;;9.80;32.60;;;;;;10362481;28;20629;-69
2023/02/21 23:17:33;;;;;;;4.17;3.70;;;9.70;32.90;;;;;;10363731;28;20570;-69
2023/02/21 23:22:36;;;;;;;3.93;3.60;;;9.60;32.80;;;;;;10365795;28;20272;-69
2023/02/21 23:27:40;;;;;;;4.13;3.73;;;9.60;32.90;;;;;;10365956;28;20253;-69
2023/02/21 23:32:44;;;;;;;6.27;4.63;;;9.50;33.20;;;;;;10362763;28;20222;-69
2023/02/21 23:37:48;;;;;;;4.77;4.37;;;9.40;33.10;;;;;;10364467;28;20226;-69
2023/02/21 23:42:54;;;;;;;4.30;3.90;;;9.40;33.20;;;;;;10364758;28;20248;-69
2023/02/21 23:47:57;;;;;;;4.37;3.97;;;9.40;33.60;;;;;;10364520;28;20581;-69
2023/02/21 23:53:01;;;;;;;4.40;3.97;;;9.40;33.30;;;;;;10363947;28;20226;-69
2023/02/21 23:58:09;;;;;;;5.13;4.33;;;9.40;33.30;;;;;;10365758;28;20707;-69
